Time;durP1;ratioP1;P1;durP2;ratioP2;P2;SDS_P1;SDS_P2;PMS_P1;PMS_P2;Temp;Humidity;BMP_temperature;BMP_pressure;BME280_temperature;BME280_humidity;BME280_pressure;Samples;Min_cycle;Max_cycle;Signal;HPM_P1;HPM_P2
2022/03/07 00:00:34;;;;;;;12.00;5.88;;;;;;;0.14;67.47;100903.25;5069229;28;20103;-70
2022/03/07 00:02:59;;;;;;;8.82;4.72;;;;;;;0.16;67.83;100911.84;5068320;28;20036;-70
2022/03/07 00:05:24;;;;;;;11.35;4.80;;;;;;;0.18;67.27;100912.66;5069216;28;20029;-71
2022/03/07 00:07:50;;;;;;;10.30;4.38;;;;;;;0.16;67.67;100918.72;5068157;28;20033;-72
2022/03/07 00:10:15;;;;;;;8.38;4.50;;;;;;;0.14;67.41;100913.56;5068670;28;20391;-71
2022/03/07 00:12:40;;;;;;;10.40;4.50;;;;;;;0.13;68.04;100917.03;5068923;28;20032;-70
2022/03/07 00:15:06;;;;;;;10.35;5.05;;;;;;;0.11;68.18;100912.75;5068610;28;20036;-71
2022/03/07 00:17:31;;;;;;;10.63;5.15;;;;;;;0.13;67.97;100911.88;5068750;28;20512;-71
2022/03/07 00:19:56;;;;;;;12.93;4.63;;;;;;;0.09;67.84;100917.09;5069036;28;20078;-69
2022/03/07 00:22:22;;;;;;;9.38;4.63;;;;;;;0.11;67.95;100915.34;5068874;28;20496;-70
2022/03/07 00:24:47;;;;;;;9.45;4.38;;;;;;;0.11;68.38;100918.78;5068588;28;20474;-70
2022/03/07 00:27:12;;;;;;;14.07;4.25;;;;;;;0.11;68.48;100913.63;5068552;28;20036;-69
2022/03/07 00:29:38;;;;;;;8.95;3.70;;;;;;;0.12;68.19;100925.66;5066428;28;20514;-69
2022/03/07 00:32:03;;;;;;;9.30;4.65;;;;;;;0.12;68.28;100919.66;5068489;28;20040;-71
2022/03/07 00:34:29;;;;;;;8.68;4.38;;;;;;;0.09;68.31;100912.78;5068440;28;20111;-72
2022/03/07 00:36:54;;;;;;;9.95;4.30;;;;;;;0.10;67.86;100922.22;5069479;28;20393;-70
2022/03/07 00:39:20;;;;;;;11.70;4.38;;;;;;;0.06;68.64;100915.41;5066170;28;20032;-71
2022/03/07 00:41:45;;;;;;;7.28;3.80;;;;;;;0.10;68.45;100914.50;5068258;28;20037;-70
2022/03/07 00:44:10;;;;;;;10.18;4.38;;;;;;;0.11;68.71;100913.63;5067633;28;20041;-71
2022/03/07 00:46:36;;;;;;;11.18;4.40;;;;;;;0.12;68.37;100911.91;5067291;28;20044;-67
2022/03/07 00:49:01;;;;;;;8.35;3.63;;;;;;;0.12;68.42;100915.34;5068617;28;20103;-70
2022/03/07 00:51:26;;;;;;;8.55;3.40;;;;;;;0.12;68.50;100912.75;5068559;28;20671;-71
2022/03/07 00:53:52;;;;;;;7.43;3.50;;;;;;;0.12;68.62;100912.75;5066697;28;20037;-72
2022/03/07 00:56:17;;;;;;;6.13;3.17;;;;;;;0.13;68.74;100906.72;5068023;28;20045;-72
2022/03/07 00:58:42;;;;;;;8.93;4.00;;;;;;;0.14;68.51;100905.84;5068455;28;20494;-69
2022/03/07 01:01:08;;;;;;;7.28;3.85;;;;;;;0.18;68.84;100916.97;5067705;28;20019;-71
2022/03/07 01:03:34;;;;;;;8.63;3.58;;;;;;;0.16;68.58;100919.56;5067451;28;20043;-71
2022/03/07 01:05:59;;;;;;;7.35;3.35;;;;;;;0.20;68.64;100907.50;5068615;28;20048;-68
2022/03/07 01:08:26;;;;;;;8.98;3.42;;;;;;;0.17;68.28;100902.38;5067238;28;20033;-69
2022/03/07 01:10:52;;;;;;;8.20;3.50;;;;;;;0.13;68.91;100903.28;5068527;28;20044;-69
2022/03/07 01:13:18;;;;;;;9.95;3.55;;;;;;;0.13;68.42;100908.44;5067201;28;20089;-70
2022/03/07 01:15:44;;;;;;;7.00;3.55;;;;;;;0.12;68.83;100910.19;5065215;28;20246;-70
2022/03/07 01:18:09;;;;;;;8.43;3.28;;;;;;;0.11;69.11;100907.59;5068374;28;20453;-68
2022/03/07 01:20:34;;;;;;;6.90;3.60;;;;;;;0.10;69.25;100916.22;5073552;28;20034;-70
2022/03/07 01:23:00;;;;;;;16.60;3.80;;;;;;;0.09;69.18;100912.78;5065367;28;20174;-69
2022/03/07 01:25:26;;;;;;;8.18;3.40;;;;;;;0.08;68.87;100905.09;5068061;28;20100;-70
2022/03/07 01:27:51;;;;;;;12.63;4.57;;;;;;;0.02;69.21;100906.00;5068313;28;20020;-71
2022/03/07 01:30:17;;;;;;;8.60;4.32;;;;;;;0.03;69.62;100907.72;5067514;28;20174;-69
2022/03/07 01:32:42;;;;;;;8.77;4.13;;;;;;;0.05;69.37;100903.41;5067736;28;20036;-70
2022/03/07 01:35:08;;;;;;;7.85;3.55;;;;;;;0.04;68.94;100896.53;5067536;28;20100;-71
2022/03/07 01:37:34;;;;;;;9.15;3.88;;;;;;;0.04;69.65;100904.28;5067817;28;20394;-70
2022/03/07 01:39:59;;;;;;;11.93;4.57;;;;;;;0.07;69.77;100903.38;5069826;28;20023;-71
2022/03/07 01:42:24;;;;;;;9.57;3.97;;;;;;;0.04;69.75;100901.69;5071402;28;20107;-70
2022/03/07 01:44:50;;;;;;;7.53;3.70;;;;;;;0.03;69.69;100907.72;5069488;28;20043;-70
2022/03/07 01:47:15;;;;;;;7.72;4.13;;;;;;;0.03;70.22;100893.97;5071332;28;20032;-70
2022/03/07 01:49:40;;;;;;;13.02;3.95;;;;;;;0.07;69.93;100896.47;5070825;28;20032;-71
2022/03/07 01:52:07;;;;;;;7.78;3.20;;;;;;;0.07;69.97;100890.47;5071735;28;20056;-70
2022/03/07 01:54:33;;;;;;;9.25;3.88;;;;;;;0.07;69.81;100896.47;5070819;28;20123;-71
2022/03/07 01:56:58;;;;;;;7.07;3.58;;;;;;;0.06;70.01;100889.63;5070741;28;20163;-71
2022/03/07 01:59:27;;;;;;;7.53;3.53;;;;;;;0.06;70.15;100883.63;5070537;28;20048;-70
2022/03/07 02:01:54;;;;;;;8.27;3.83;;;;;;;0.10;70.15;100893.88;5069293;28;20028;-71
2022/03/07 02:04:19;;;;;;;9.55;3.90;;;;;;;0.12;69.95;100884.41;5070670;28;20036;-71
2022/03/07 02:06:46;;;;;;;7.22;3.63;;;;;;;0.14;69.63;100889.53;5070783;28;20037;-70
2022/03/07 02:09:12;;;;;;;7.18;3.65;;;;;;;0.15;69.62;100889.50;5070503;28;20051;-71
2022/03/07 02:14:18;;;;;;;6.35;3.53;;;;;;;0.12;69.89;100888.69;5077083;22;20041;-71
2022/03/07 02:16:45;;;;;;;9.27;3.50;;;;;;;0.11;69.89;100884.41;5057274;28;20048;-70
2022/03/07 02:19:11;;;;;;;11.13;4.78;;;;;;;0.06;70.13;100887.06;5064268;28;20158;-70
2022/03/07 02:21:43;;;;;;;8.27;3.80;;;;;;;0.07;70.05;100881.00;5067328;28;20166;-69
2022/03/07 02:24:08;;;;;;;8.43;4.05;;;;;;;0.08;69.73;100882.75;5037547;28;20399;-69
2022/03/07 02:26:33;;;;;;;8.98;3.92;;;;;;;0.09;70.38;100876.69;5024160;28;20507;-69
2022/03/07 02:28:59;;;;;;;7.40;3.85;;;;;;;0.08;70.06;100876.72;5047640;28;20048;-68
2022/03/07 02:31:24;;;;;;;8.07;4.15;;;;;;;0.02;70.26;100872.50;5044465;28;20172;-70
2022/03/07 02:33:50;;;;;;;7.75;4.07;;;;;;;-0.01;70.79;100869.97;5026544;28;20037;-69
2022/03/07 02:36:15;;;;;;;7.78;3.65;;;;;;;-0.01;70.38;100873.38;5046448;28;20025;-67
2022/03/07 02:38:40;;;;;;;9.38;4.07;;;;;;;0.01;70.65;100875.13;5043760;28;20029;-70
2022/03/07 02:41:06;;;;;;;7.20;3.75;;;;;;;0.01;70.77;100882.84;5046098;28;20101;-71
2022/03/07 02:43:31;;;;;;;14.13;4.10;;;;;;;0.02;70.72;100875.09;5026842;28;20057;-70
2022/03/07 02:45:58;;;;;;;8.93;3.92;;;;;;;-0.02;70.35;100882.00;5043894;28;20094;-70
2022/03/07 02:48:25;;;;;;;10.00;4.07;;;;;;;-0.01;71.12;100875.13;5048504;28;20037;-70
2022/03/07 02:50:50;;;;;;;8.80;3.70;;;;;;;-0.01;70.85;100873.38;5046194;28;20402;-71
2022/03/07 02:53:15;;;;;;;10.68;4.53;;;;;;;-0.01;70.88;100877.69;5021382;28;20538;-67
2022/03/07 02:55:41;;;;;;;7.20;3.88;;;;;;;-0.02;70.87;100876.84;5043222;28;20033;-71
2022/03/07 02:58:06;;;;;;;10.25;4.18;;;;;;;-0.02;71.17;100868.28;5036972;28;20379;-69
2022/03/07 03:00:32;;;;;;;9.15;4.43;;;;;;;-0.05;71.03;100871.72;5045149;28;20029;-70
2022/03/07 03:02:57;;;;;;;9.25;3.90;;;;;;;-0.08;71.43;100876.06;5038981;28;20029;-70
2022/03/07 03:05:24;;;;;;;13.02;4.40;;;;;;;-0.08;71.53;100876.06;5048229;28;20089;-71
2022/03/07 03:07:51;;;;;;;9.63;3.85;;;;;;;-0.07;71.49;100877.81;5034626;28;20045;-70
2022/03/07 03:10:17;;;;;;;12.90;4.53;;;;;;;-0.06;71.36;100874.34;5037090;28;20017;-68
2022/03/07 03:12:43;;;;;;;7.60;4.47;;;;;;;-0.08;71.59;100876.06;5043178;28;20040;-70
2022/03/07 03:15:09;;;;;;;14.38;4.57;;;;;;;-0.06;71.32;100879.50;5041851;28;20037;-71
2022/03/07 03:17:34;;;;;;;7.78;4.50;;;;;;;-0.06;71.35;100874.34;5043352;28;20045;-66
2022/03/07 03:19:59;;;;;;;13.55;4.97;;;;;;;-0.05;71.56;100878.63;5040129;28;20643;-69
2022/03/07 03:22:25;;;;;;;12.40;4.45;;;;;;;-0.09;71.42;100874.38;5044286;28;20033;-67
2022/03/07 03:24:50;;;;;;;9.13;4.63;;;;;;;-0.09;71.44;100876.97;5037168;28;20650;-69
2022/03/07 03:27:16;;;;;;;9.80;4.85;;;;;;;-0.07;72.08;100870.91;5026733;28;20043;-70
2022/03/07 03:29:41;;;;;;;11.95;4.63;;;;;;;-0.08;71.81;100861.47;5036614;28;20525;-69
2022/03/07 03:32:07;;;;;;;12.63;4.85;;;;;;;-0.11;71.93;100865.81;5047631;28;20033;-69
2022/03/07 03:34:32;;;;;;;9.40;4.55;;;;;;;-0.12;72.26;100867.53;5046156;28;20041;-70
2022/03/07 03:36:58;;;;;;;8.50;4.47;;;;;;;-0.13;72.11;100862.41;5039044;28;20056;-70
2022/03/07 03:39:24;;;;;;;9.63;4.90;;;;;;;-0.12;72.26;100864.09;5045945;28;20490;-68
2022/03/07 03:41:49;;;;;;;11.68;4.90;;;;;;;-0.11;72.12;100868.38;5035975;28;20029;-69
2022/03/07 03:44:14;;;;;;;11.25;4.93;;;;;;;-0.13;72.80;100870.16;5044388;28;20033;-70
2022/03/07 03:46:40;;;;;;;11.35;4.22;;;;;;;-0.11;72.46;100874.41;5038460;28;20033;-70
2022/03/07 03:49:05;;;;;;;9.95;4.65;;;;;;;-0.12;72.66;100869.25;5034738;28;20029;-69
2022/03/07 03:51:31;;;;;;;7.35;4.55;;;;;;;-0.11;73.09;100877.00;5038251;28;20040;-70
2022/03/07 03:53:56;;;;;;;8.80;4.68;;;;;;;-0.11;72.77;100865.81;5046590;28;20041;-73
2022/03/07 03:56:22;;;;;;;11.05;4.65;;;;;;;-0.11;72.77;100870.94;5046849;28;20121;-70
2022/03/07 03:58:47;;;;;;;7.97;4.20;;;;;;;-0.12;73.25;100871.84;5027796;28;20411;-70
2022/03/07 04:01:12;;;;;;;8.95;4.63;;;;;;;-0.09;73.14;100877.81;5050669;28;20048;-68
2022/03/07 04:03:38;;;;;;;12.40;4.50;;;;;;;-0.09;72.99;100877.81;5026692;28;20028;-69
2022/03/07 04:06:06;;;;;;;11.75;4.85;;;;;;;-0.09;73.05;100882.97;5047001;28;20131;-70
2022/03/07 04:08:35;;;;;;;9.82;4.85;;;;;;;-0.06;72.45;100884.66;5026640;28;20128;-71
2022/03/07 04:11:00;;;;;;;;;;;;;;;-0.06;72.89;100890.66;5047142;28;20065;-69
2022/03/07 04:13:25;;;;;;;9.23;4.60;;;;;;;-0.06;72.92;100894.97;5018439;28;19997;-71
2022/03/07 04:15:51;;;;;;;9.90;5.40;;;;;;;-0.08;73.54;100888.97;5017950;28;20396;-70
2022/03/07 04:18:16;;;;;;;12.00;5.13;;;;;;;-0.07;73.16;100890.69;5046761;28;20048;-69
2022/03/07 04:20:42;;;;;;;10.13;5.15;;;;;;;-0.10;73.06;100888.16;5045328;28;20036;-72
2022/03/07 04:23:08;;;;;;;17.98;5.38;;;;;;;-0.08;73.37;100894.97;5046003;28;20513;-71
2022/03/07 04:25:33;;;;;;;9.02;4.53;;;;;;;-0.09;73.01;100887.25;5045768;28;20037;-68
2022/03/07 04:27:59;;;;;;;18.80;5.15;;;;;;;-0.11;73.46;100889.88;5037631;28;20811;-70
2022/03/07 04:30:25;;;;;;;9.10;5.10;;;;;;;-0.12;73.67;100889.88;5028543;28;20056;-68
2022/03/07 04:32:50;;;;;;;11.07;5.38;;;;;;;-0.15;73.84;100892.50;5041590;28;20056;-69
2022/03/07 04:35:16;;;;;;;17.95;5.60;;;;;;;-0.16;73.62;100893.38;5039111;28;20110;-69
2022/03/07 04:37:41;;;;;;;14.60;5.93;;;;;;;-0.19;74.38;100891.69;5020466;28;20056;-69
2022/03/07 04:40:13;;;;;;;12.38;5.47;;;;;;;-0.19;73.98;100893.41;5021366;28;20028;-70
2022/03/07 04:42:41;;;;;;;11.25;5.18;;;;;;;-0.25;74.72;100886.63;5045029;28;20037;-71
2022/03/07 04:45:07;;;;;;;10.75;5.70;;;;;;;-0.31;74.54;100887.53;5038046;28;20060;-69
2022/03/07 04:47:33;;;;;;;12.32;5.78;;;;;;;-0.42;74.92;100894.56;5040489;28;20493;-69
2022/03/07 04:49:58;;;;;;;11.48;5.30;;;;;;;-0.50;75.55;100891.22;5019824;28;20117;-70
2022/03/07 04:52:24;;;;;;;11.95;6.05;;;;;;;-0.54;75.75;100884.41;5040578;28;20052;-70
2022/03/07 04:54:49;;;;;;;12.88;5.60;;;;;;;-0.60;75.50;100882.72;5036339;28;20029;-69
2022/03/07 04:57:14;;;;;;;10.38;5.55;;;;;;;-0.62;76.31;100878.50;5041821;28;20028;-69
2022/03/07 04:59:39;;;;;;;11.30;5.95;;;;;;;-0.64;76.23;100883.63;5045534;28;20037;-69
2022/03/07 05:02:05;;;;;;;15.30;6.57;;;;;;;-0.62;76.09;100874.19;5040589;28;20132;-66
2022/03/07 05:04:30;;;;;;;12.95;5.75;;;;;;;-0.58;76.37;100878.44;5038428;28;20136;-69
2022/03/07 05:06:56;;;;;;;9.75;5.55;;;;;;;-0.60;75.86;100882.72;5044437;28;20622;-69
2022/03/07 05:09:21;;;;;;;11.63;5.63;;;;;;;-0.61;76.29;100880.19;5037836;28;20546;-69
2022/03/07 05:11:47;;;;;;;10.25;5.78;;;;;;;-0.63;75.84;100884.50;5043798;28;20033;-69
2022/03/07 05:14:12;;;;;;;17.45;6.30;;;;;;;-0.67;76.58;100881.09;5042908;28;20095;-68
2022/03/07 05:16:38;;;;;;;17.15;6.72;;;;;;;-0.69;76.41;100888.00;5041432;28;20116;-71
2022/03/07 05:19:03;;;;;;;14.85;6.40;;;;;;;-0.68;76.69;100888.84;5041395;28;20109;-71
2022/03/07 05:21:29;;;;;;;13.30;6.15;;;;;;;-0.68;76.57;100900.00;5029638;28;20029;-70
2022/03/07 05:23:54;;;;;;;13.93;5.85;;;;;;;-0.77;76.69;100887.25;5049791;28;20515;-71
2022/03/07 05:26:20;;;;;;;15.02;6.65;;;;;;;-0.78;76.96;100899.25;5049240;28;20033;-69
2022/03/07 05:28:45;;;;;;;13.18;5.88;;;;;;;-0.81;77.15;100896.72;5050096;28;20091;-70
2022/03/07 05:31:15;;;;;;;15.02;6.38;;;;;;;-0.84;77.60;100901.03;5042786;28;20029;-71
2022/03/07 05:33:43;;;;;;;10.60;6.35;;;;;;;-0.86;77.82;100918.22;5046719;28;20017;-69
2022/03/07 05:36:09;;;;;;;17.27;5.95;;;;;;;-0.91;77.93;100923.41;5042569;28;20033;-69
2022/03/07 05:38:34;;;;;;;13.35;6.85;;;;;;;-0.97;77.98;100919.16;5024710;28;20363;-71
2022/03/07 05:40:59;;;;;;;17.77;8.40;;;;;;;-0.96;79.98;100927.75;5045401;28;20037;-72
2022/03/07 05:43:25;;;;;;;19.30;8.25;;;;;;;-0.92;81.46;100926.84;5048542;28;20503;-72
2022/03/07 05:45:50;;;;;;;20.88;9.10;;;;;;;-0.91;80.20;100920.00;5044890;28;20029;-74
2022/03/07 05:48:15;;;;;;;16.42;8.75;;;;;;;-0.69;80.53;100926.63;5047212;28;20061;-69
2022/03/07 05:50:41;;;;;;;13.02;7.53;;;;;;;-0.60;78.84;100936.81;5040747;28;20040;-68
2022/03/07 05:53:07;;;;;;;18.20;8.50;;;;;;;-0.68;78.41;100930.06;5035427;28;20037;-69
2022/03/07 05:55:32;;;;;;;22.17;10.25;;;;;;;-0.74;78.39;100930.97;5048651;28;20033;-70
2022/03/07 05:58:00;;;;;;;21.55;8.90;;;;;;;-0.91;77.93;100933.72;5048661;28;20051;-72
2022/03/07 06:00:26;;;;;;;21.13;8.23;;;;;;;-1.06;78.45;100933.84;5048737;28;20033;-71
2022/03/07 06:02:51;;;;;;;16.80;9.23;;;;;;;-1.22;79.44;100933.13;5047517;28;20036;-67
2022/03/07 06:05:16;;;;;;;20.90;9.73;;;;;;;-1.31;80.03;100940.91;5047069;28;20103;-70
2022/03/07 06:07:41;;;;;;;12.65;8.40;;;;;;;-1.34;80.08;100941.78;5043542;28;20136;-69
2022/03/07 06:10:07;;;;;;;21.80;7.88;;;;;;;-1.25;81.97;100946.88;5047111;28;20481;-70
2022/03/07 06:12:32;;;;;;;22.35;8.57;;;;;;;-1.23;82.24;100947.69;5044570;28;20045;-68
2022/03/07 06:15:03;;;;;;;22.98;9.10;;;;;;;-1.28;80.66;100949.47;5020930;28;20125;-70
2022/03/07 06:17:29;;;;;;;21.33;9.07;;;;;;;-1.29;80.39;100959.78;5044476;28;20065;-68
2022/03/07 06:19:54;;;;;;;19.13;8.40;;;;;;;-1.21;81.79;100955.41;5028554;28;20450;-67
2022/03/07 06:22:19;;;;;;;15.50;7.13;;;;;;;-1.07;80.56;100948.44;5048899;28;20474;-69
2022/03/07 06:24:44;;;;;;;17.60;8.00;;;;;;;-0.86;78.67;100957.66;5048681;28;20104;-70
2022/03/07 06:27:10;;;;;;;13.45;7.35;;;;;;;-0.93;78.35;100958.59;5015253;28;20064;-68
2022/03/07 06:29:35;;;;;;;23.27;8.68;;;;;;;-0.98;78.55;100957.78;5045235;28;20041;-71
2022/03/07 06:32:01;;;;;;;21.15;9.80;;;;;;;-1.03;78.47;100965.56;5040221;28;20112;-70
2022/03/07 06:34:27;;;;;;;18.13;8.98;;;;;;;-1.10;79.14;100965.63;5022946;28;20059;-69
2022/03/07 06:36:53;;;;;;;15.50;7.95;;;;;;;-1.09;79.08;100969.91;5048951;28;20471;-69
2022/03/07 06:39:19;;;;;;;13.48;7.25;;;;;;;-1.11;78.93;100974.19;5047994;28;20033;-70
2022/03/07 06:41:44;;;;;;;19.88;7.43;;;;;;;-1.12;78.61;100972.50;5026585;28;20393;-70
2022/03/07 06:44:09;;;;;;;20.35;8.02;;;;;;;-1.09;79.43;100973.31;5039597;28;20045;-70
2022/03/07 06:46:35;;;;;;;15.80;7.85;;;;;;;-1.11;78.75;100977.66;5036612;28;20525;-69
2022/03/07 06:49:00;;;;;;;17.38;7.55;;;;;;;-1.08;78.88;100969.88;5048653;28;20080;-67
2022/03/07 06:51:25;;;;;;;25.00;7.93;;;;;;;-1.06;78.89;100972.44;5048308;28;20037;-71
2022/03/07 06:53:51;;;;;;;16.42;7.75;;;;;;;-1.05;79.06;100974.16;5039891;28;20037;-69
2022/03/07 06:56:19;;;;;;;18.30;8.30;;;;;;;-1.02;78.69;100976.72;5041815;28;20040;-70
2022/03/07 06:58:46;;;;;;;15.88;7.45;;;;;;;-0.95;78.49;100972.38;5045105;28;20467;-69
2022/03/07 07:01:11;;;;;;;19.35;7.70;;;;;;;-0.93;78.30;100976.63;5047590;28;20134;-70
2022/03/07 07:03:36;;;;;;;17.42;9.02;;;;;;;-0.86;78.04;100972.28;5039317;28;20025;-72
2022/03/07 07:06:02;;;;;;;17.80;7.78;;;;;;;-0.83;78.04;100975.66;5040130;28;20541;-71
2022/03/07 07:08:27;;;;;;;16.67;8.23;;;;;;;-0.81;77.49;100976.53;5041316;28;20140;-68
2022/03/07 07:10:52;;;;;;;21.70;7.93;;;;;;;-0.75;77.12;100984.16;5018332;28;20041;-70
2022/03/07 07:13:18;;;;;;;14.57;7.00;;;;;;;-0.66;76.48;100982.41;5037663;28;20474;-70
2022/03/07 07:15:43;;;;;;;17.58;6.47;;;;;;;-0.55;76.24;100986.56;5048767;28;20474;-70
2022/03/07 07:18:08;;;;;;;23.50;8.40;;;;;;;-0.45;75.87;100996.78;5040857;28;20040;-69
2022/03/07 07:20:34;;;;;;;11.55;6.00;;;;;;;-0.41;75.12;100998.44;5041757;28;20115;-71
2022/03/07 07:22:59;;;;;;;12.65;6.30;;;;;;;-0.37;74.08;100990.69;5046809;28;20589;-69
2022/03/07 07:25:25;;;;;;;19.98;7.30;;;;;;;-0.26;74.23;100991.44;5052601;28;20390;-70
2022/03/07 07:27:51;;;;;;;12.90;6.10;;;;;;;-0.17;74.06;100994.75;5030319;28;20658;-70
2022/03/07 07:30:16;;;;;;;12.32;5.90;;;;;;;-0.09;73.28;100990.38;5039082;28;20033;-73
2022/03/07 07:32:41;;;;;;;12.20;7.07;;;;;;;-0.04;73.03;100999.78;5046187;28;20045;-71
2022/03/07 07:35:08;;;;;;;13.13;7.82;;;;;;;0.01;72.89;100986.81;5040032;28;20124;-70
2022/03/07 07:37:34;;;;;;;19.92;10.57;;;;;;;0.06;72.03;100992.75;5020733;28;20041;-70
2022/03/07 07:39:59;;;;;;;28.85;10.90;;;;;;;0.13;71.68;100999.53;5044219;28;20036;-71
2022/03/07 07:42:24;;;;;;;38.25;14.07;;;;;;;0.23;70.69;100995.13;5027475;28;20651;-70
2022/03/07 07:44:50;;;;;;;11.35;5.72;;;;;;;0.32;69.62;100996.72;5035439;28;20179;-73
2022/03/07 07:47:15;;;;;;;19.20;7.93;;;;;;;0.38;69.98;100999.25;5050246;28;20506;-68
2022/03/07 07:49:40;;;;;;;13.13;6.97;;;;;;;0.42;69.38;100986.28;5039184;28;20077;-68
2022/03/07 07:52:06;;;;;;;12.43;5.40;;;;;;;0.47;69.72;100999.09;5044470;28;20017;-70
2022/03/07 07:54:32;;;;;;;14.90;5.72;;;;;;;0.54;69.55;100992.13;5034898;28;20507;-72
2022/03/07 07:56:57;;;;;;;18.25;5.43;;;;;;;0.59;69.00;100998.91;5043770;28;20057;-69
2022/03/07 07:59:23;;;;;;;9.73;4.63;;;;;;;0.70;67.62;101002.22;5039631;28;20420;-69
2022/03/07 08:01:48;;;;;;;10.50;4.78;;;;;;;0.78;65.95;100991.78;5039408;28;20048;-72
2022/03/07 08:04:14;;;;;;;10.23;4.70;;;;;;;0.85;65.54;100998.53;5047262;28;20106;-71
2022/03/07 08:06:40;;;;;;;10.75;4.53;;;;;;;0.93;65.17;101003.59;5040186;28;20021;-71
2022/03/07 08:09:06;;;;;;;11.52;5.28;;;;;;;0.98;64.39;101011.25;5039299;28;20033;-70
2022/03/07 08:11:31;;;;;;;13.77;5.85;;;;;;;1.02;64.78;101006.00;5035875;28;20600;-71
2022/03/07 08:13:56;;;;;;;9.95;3.28;;;;;;;1.11;62.09;101013.63;5083781;22;20071;-73
2022/03/07 08:16:22;;;;;;;4.97;3.03;;;;;;;1.21;59.94;100999.66;5085826;28;20081;-72
2022/03/07 08:18:47;;;;;;;7.00;3.20;;;;;;;1.25;60.68;101004.78;5089989;28;20040;-72
2022/03/07 08:21:12;;;;;;;7.47;3.03;;;;;;;1.29;60.69;101012.44;5086334;28;20093;-71
2022/03/07 08:23:38;;;;;;;5.97;2.65;;;;;;;1.37;58.85;101012.31;5078855;28;20118;-72
2022/03/07 08:26:03;;;;;;;12.35;3.60;;;;;;;1.38;57.64;101006.28;5076164;28;20112;-73
2022/03/07 08:28:29;;;;;;;9.68;3.17;;;;;;;1.43;59.23;101010.47;5081323;28;20073;-73
2022/03/07 08:30:54;;;;;;;7.25;3.67;;;;;;;1.51;59.37;101004.31;5075376;28;20474;-71
2022/03/07 08:33:19;;;;;;;9.50;3.40;;;;;;;1.57;59.08;101007.66;5071159;28;20028;-73
2022/03/07 08:35:45;;;;;;;5.82;2.75;;;;;;;1.69;58.33;101003.97;5077629;28;20433;-74
2022/03/07 08:38:10;;;;;;;7.68;2.70;;;;;;;1.74;58.08;101011.66;5078807;28;20048;-71
2022/03/07 08:40:35;;;;;;;9.82;3.67;;;;;;;1.85;56.04;101004.53;5080988;28;20039;-71
2022/03/07 08:43:01;;;;;;;10.35;3.00;;;;;;;1.88;55.65;101010.50;5077004;28;20046;-73
2022/03/07 08:45:26;;;;;;;6.35;2.55;;;;;;;1.92;55.89;101006.97;5080252;28;21141;-72
2022/03/07 08:47:52;;;;;;;6.93;2.58;;;;;;;1.95;55.85;101008.66;5082839;28;20032;-71
2022/03/07 08:50:18;;;;;;;9.52;2.90;;;;;;;1.95;55.95;101006.06;5079727;28;20391;-72
2022/03/07 08:52:46;;;;;;;8.68;3.00;;;;;;;1.99;56.17;101004.28;5083534;28;20024;-72
2022/03/07 08:55:12;;;;;;;10.10;2.77;;;;;;;2.03;57.10;100998.16;5082472;28;20024;-71
2022/03/07 08:57:38;;;;;;;11.13;3.95;;;;;;;2.10;57.40;101013.50;5083801;28;20024;-72
2022/03/07 09:00:12;;;;;;;12.98;4.00;;;;;;;2.21;57.97;101020.22;5082592;28;20029;-72
2022/03/07 09:02:38;;;;;;;14.05;5.28;;;;;;;2.28;58.34;101017.47;5088234;28;20097;-73
2022/03/07 09:05:04;;;;;;;9.80;3.75;;;;;;;2.37;59.04;101031.94;5076977;28;20029;-71
2022/03/07 09:07:30;;;;;;;6.03;3.60;;;;;;;2.42;59.06;101030.13;5070872;28;20130;-71
2022/03/07 09:09:56;;;;;;;15.98;4.20;;;;;;;2.44;59.52;101023.16;5074951;28;20546;-72
2022/03/07 09:12:25;;;;;;;7.25;3.78;;;;;;;2.47;60.29;101032.59;5083489;28;20439;-72
2022/03/07 09:14:50;;;;;;;7.60;3.10;;;;;;;2.40;59.76;101030.13;5081369;28;20039;-72
2022/03/07 09:17:16;;;;;;;12.68;3.65;;;;;;;2.33;59.64;101031.16;5071107;28;20024;-73
2022/03/07 09:19:41;;;;;;;8.98;3.88;;;;;;;2.34;58.68;101021.69;5079990;28;20067;-71
2022/03/07 09:22:07;;;;;;;7.57;3.10;;;;;;;2.38;58.47;101031.06;5083411;28;20104;-72
2022/03/07 09:24:32;;;;;;;9.32;3.33;;;;;;;2.45;59.61;101037.81;5077050;28;20090;-72
2022/03/07 09:26:57;;;;;;;8.60;3.13;;;;;;;2.49;59.54;101041.19;5082880;28;20025;-72
2022/03/07 09:29:24;;;;;;;11.88;3.80;;;;;;;2.48;59.73;101029.13;5079899;28;20065;-71
2022/03/07 09:31:49;;;;;;;9.52;3.72;;;;;;;2.53;60.31;101038.50;5083737;28;20039;-71
2022/03/07 09:34:15;;;;;;;6.65;3.38;;;;;;;2.61;59.81;101030.56;5081886;28;20021;-71
2022/03/07 09:36:40;;;;;;;7.35;3.80;;;;;;;2.69;59.05;101028.66;5084349;28;20042;-72
2022/03/07 09:39:06;;;;;;;9.20;3.22;;;;;;;2.72;58.26;101033.78;5081690;28;20119;-72
2022/03/07 09:41:32;;;;;;;8.95;3.20;;;;;;;2.72;57.86;101038.09;5084405;28;20386;-73
2022/03/07 09:43:58;;;;;;;13.10;3.67;;;;;;;2.78;58.36;101025.00;5075640;28;20036;-74
2022/03/07 09:46:25;;;;;;;6.03;3.10;;;;;;;2.82;58.20;101027.50;5083954;28;20028;-71
2022/03/07 09:48:52;;;;;;;6.53;3.50;;;;;;;2.82;58.59;101027.50;5078222;28;20043;-71
2022/03/07 09:51:17;;;;;;;7.70;3.45;;;;;;;2.85;58.39;101026.56;5071606;28;20533;-72
2022/03/07 09:53:43;;;;;;;10.95;3.75;;;;;;;2.86;58.75;101023.09;5076775;28;20109;-70
2022/03/07 09:56:08;;;;;;;9.88;4.07;;;;;;;2.95;58.73;101027.22;5081682;28;20055;-68
2022/03/07 09:58:33;;;;;;;8.18;3.20;;;;;;;3.07;58.08;101030.34;5081451;28;20437;-71
2022/03/07 10:01:12;;;;;;;9.82;3.90;;;;;;;3.23;57.03;101025.66;5078380;28;20469;-70
2022/03/07 10:03:39;;;;;;;12.27;4.13;;;;;;;3.21;58.41;101035.19;5069882;28;20045;-73
2022/03/07 10:06:31;;;;;;;8.82;3.90;;;;;;;3.22;58.38;101012.72;5076350;28;21585;-73
2022/03/07 10:08:58;;;;;;;13.63;4.03;;;;;;;3.28;58.73;101017.78;5070864;28;20040;-68
2022/03/07 10:11:24;;;;;;;7.95;3.63;;;;;;;3.36;58.62;101016.66;5071400;28;20033;-74
2022/03/07 10:13:55;;;;;;;7.60;4.15;;;;;;;3.38;58.24;101014.91;5073028;28;20055;-74
2022/03/07 10:16:21;;;;;;;10.43;4.18;;;;;;;3.45;58.48;101014.72;5073797;28;20037;-73
2022/03/07 10:18:54;;;;;;;9.07;4.72;;;;;;;3.58;58.45;101003.16;5073523;28;20143;-70
2022/03/07 10:21:25;;;;;;;13.50;3.72;;;;;;;3.78;58.78;101007.81;5073361;28;20093;-72
2022/03/07 10:23:55;;;;;;;11.68;5.10;;;;;;;3.77;57.96;101003.50;5074840;28;20052;-74
2022/03/07 10:26:21;;;;;;;10.52;4.75;;;;;;;3.66;58.88;101005.53;5095161;28;20033;-75
2022/03/07 10:28:55;;;;;;;11.40;4.30;;;;;;;3.61;59.22;101001.34;5098772;28;20091;-74
2022/03/07 10:31:22;;;;;;;14.25;5.43;;;;;;;3.57;59.70;100998.88;5073888;28;20040;-74
2022/03/07 10:33:59;;;;;;;9.00;4.28;;;;;;;3.54;59.84;101004.13;5076247;28;20024;-72
2022/03/07 10:36:33;;;;;;;7.63;4.30;;;;;;;3.66;59.62;101000.38;5071483;28;20455;-72
2022/03/07 10:38:58;;;;;;;11.93;5.57;;;;;;;3.71;59.29;100996.75;5075199;28;20657;-71
2022/03/07 10:41:41;;;;;;;10.63;4.45;;;;;;;3.84;58.76;100998.13;5070652;28;20090;-70
2022/03/07 10:44:11;;;;;;;11.30;4.78;;;;;;;4.09;58.77;100990.50;5069467;28;20036;-72
2022/03/07 10:46:38;;;;;;;10.88;4.55;;;;;;;4.27;58.57;100993.47;5072771;28;20050;-73
2022/03/07 10:49:07;;;;;;;11.15;5.28;;;;;;;4.39;57.91;100994.84;5070218;28;20032;-73
2022/03/07 10:51:32;;;;;;;15.10;4.93;;;;;;;4.31;57.89;100998.50;5072408;28;20040;-71
2022/03/07 10:54:10;;;;;;;13.80;4.60;;;;;;;4.26;57.77;100997.78;5068424;28;20079;-72
2022/03/07 10:56:51;;;;;;;21.35;6.35;;;;;;;4.21;58.13;101004.00;5075022;28;20036;-71
2022/03/07 10:59:32;;;;;;;9.65;4.95;;;;;;;4.09;58.55;100995.69;5075388;28;20510;-74
2022/03/07 11:02:04;;;;;;;19.08;5.18;;;;;;;4.16;58.23;100991.19;5074231;28;20663;-74
2022/03/07 11:04:30;;;;;;;13.45;4.50;;;;;;;4.16;58.09;101000.72;5071003;28;20499;-72
2022/03/07 11:06:55;;;;;;;12.63;5.15;;;;;;;4.19;58.22;100993.69;5071903;28;20039;-70
2022/03/07 11:09:21;;;;;;;9.07;5.05;;;;;;;4.31;57.99;100992.47;5072650;28;20044;-69
2022/03/07 11:11:47;;;;;;;15.10;4.70;;;;;;;4.43;57.51;100988.66;5071070;28;20126;-71
2022/03/07 11:14:13;;;;;;;14.85;4.70;;;;;;;4.56;57.55;100990.84;5071243;28;20044;-73
2022/03/07 11:16:39;;;;;;;10.60;3.95;;;;;;;4.73;57.69;100985.09;5072609;28;20103;-71
2022/03/07 11:19:06;;;;;;;9.65;4.72;;;;;;;4.98;57.37;100989.53;5076866;28;20106;-80
2022/03/07 11:21:32;;;;;;;9.52;4.60;;;;;;;5.03;57.27;100980.66;5072373;28;20513;-71